Time;durP1;ratioP1;P1;durP2;ratioP2;P2;SDS_P1;SDS_P2;PMS_P1;PMS_P2;Temp;Humidity;BMP_temperature;BMP_pressure;BME280_temperature;BME280_humidity;BME280_pressure;Samples;Min_cycle;Max_cycle;Signal;HPM_P1;HPM_P2
2022/07/20 00:01:56;;;;;;;11.60;8.20;;;24.00;94.60;;;;;;5090594;28;20670;-84
2022/07/20 00:04:23;;;;;;;9.43;8.38;;;23.90;95.40;;;;;;5073712;28;20216;-83
2022/07/20 00:06:51;;;;;;;9.38;8.00;;;23.80;96.30;;;;;;5077886;28;20204;-86
2022/07/20 00:12:03;;;;;;;9.60;8.48;;;23.70;97.90;;;;;;5075586;28;20626;-85
2022/07/20 00:14:31;;;;;;;12.57;8.90;;;23.70;99.10;;;;;;5085748;28;20287;-83
2022/07/20 00:16:58;;;;;;;11.18;8.68;;;23.60;99.90;;;;;;5082092;28;20212;-84
2022/07/20 00:19:25;;;;;;;10.27;8.25;;;23.50;99.90;;;;;;5077536;28;20204;-84
2022/07/20 00:21:51;;;;;;;11.82;9.13;;;23.50;99.90;;;;;;5080261;28;20238;-84
2022/07/20 00:24:18;;;;;;;10.10;8.18;;;23.50;99.90;;;;;;5080576;28;20230;-84
2022/07/20 00:26:45;;;;;;;10.32;8.43;;;23.20;99.90;;;;;;5096534;28;20204;-84
2022/07/20 00:29:12;;;;;;;11.40;8.25;;;23.50;99.90;;;;;;5097269;28;20323;-85
2022/07/20 00:31:40;;;;;;;10.77;8.23;;;23.30;99.90;;;;;;5098079;28;20207;-84
2022/07/20 00:34:09;;;;;;;10.02;8.20;;;23.20;99.90;;;;;;5092798;28;20693;-84
2022/07/20 00:36:36;;;;;;;9.15;7.43;;;23.20;99.90;;;;;;5104399;28;20201;-84
2022/07/20 00:39:03;;;;;;;9.77;8.27;;;23.20;99.90;;;;;;5103646;28;20207;-84
2022/07/20 00:41:30;;;;;;;12.23;8.30;;;23.20;99.90;;;;;;5096366;28;20208;-83
2022/07/20 00:43:59;;;;;;;8.35;7.50;;;23.40;99.90;;;;;;5107336;28;20203;-84
2022/07/20 00:46:27;;;;;;;10.23;9.20;;;23.10;99.90;;;;;;5114737;28;20223;-85
2022/07/20 00:48:55;;;;;;;8.68;7.88;;;23.10;99.90;;;;;;5096721;28;20271;-84
2022/07/20 00:51:24;;;;;;;10.27;8.38;;;23.00;99.90;;;;;;5091680;28;20319;-83
2022/07/20 00:53:52;;;;;;;11.27;8.70;;;23.00;99.90;;;;;;5088350;28;20238;-83
2022/07/20 00:56:20;;;;;;;11.48;9.32;;;23.00;99.90;;;;;;5086664;28;20247;-84
2022/07/20 00:58:48;;;;;;;9.90;8.60;;;22.90;99.90;;;;;;5088859;28;20211;-84
2022/07/20 01:01:19;;;;;;;9.98;8.50;;;22.90;99.90;;;;;;5087003;28;20215;-85
2022/07/20 01:03:47;;;;;;;11.35;8.93;;;22.80;99.90;;;;;;5078955;28;21041;-84
2022/07/20 01:06:14;;;;;;;10.27;9.18;;;22.80;99.90;;;;;;5075014;28;20204;-83
2022/07/20 01:08:41;;;;;;;10.30;8.75;;;22.70;99.90;;;;;;5083560;28;20232;-84
2022/07/20 01:11:08;;;;;;;12.50;9.55;;;22.70;99.90;;;;;;5083906;28;20210;-85
2022/07/20 01:13:36;;;;;;;10.82;9.73;;;22.90;99.90;;;;;;5085345;28;20219;-84
2022/07/20 01:16:03;;;;;;;11.98;9.65;;;22.60;99.90;;;;;;5083941;28;20653;-85
2022/07/20 01:18:30;;;;;;;13.02;9.10;;;22.50;99.90;;;;;;5090817;28;20554;-84
2022/07/20 01:21:06;;;;;;;12.18;9.27;;;22.50;99.90;;;;;;5091472;28;20201;-83
2022/07/20 01:23:39;;;;;;;9.60;8.70;;;22.40;99.90;;;;;;5086118;28;20256;-84
2022/07/20 01:26:18;;;;;;;11.70;9.02;;;22.60;99.90;;;;;;5084651;28;20707;-84
2022/07/20 01:28:46;;;;;;;8.77;7.72;;;22.30;99.90;;;;;;5080626;28;20238;-84
2022/07/20 01:31:14;;;;;;;10.82;9.13;;;22.40;99.90;;;;;;5085088;28;20307;-83
2022/07/20 01:33:41;;;;;;;9.70;8.70;;;22.20;99.90;;;;;;5079749;28;20294;-83
2022/07/20 01:36:13;;;;;;;15.40;8.80;;;22.20;99.90;;;;;;5097996;28;20196;-84
2022/07/20 01:38:40;;;;;;;10.15;9.00;;;22.20;99.90;;;;;;5110847;28;20188;-85
2022/07/20 01:41:07;;;;;;;12.25;8.98;;;22.10;99.90;;;;;;5095470;28;20257;-83
2022/07/20 01:43:34;;;;;;;13.23;9.23;;;22.10;99.90;;;;;;5088228;28;20684;-85
2022/07/20 01:46:01;;;;;;;10.40;9.40;;;22.00;99.90;;;;;;5083139;28;20215;-85
2022/07/20 01:48:34;;;;;;;10.32;9.00;;;21.90;99.90;;;;;;5085780;28;20261;-84
2022/07/20 01:51:01;;;;;;;10.77;9.60;;;21.90;99.90;;;;;;5080901;28;20608;-84
2022/07/20 01:53:28;;;;;;;11.23;9.68;;;21.90;99.90;;;;;;5083134;28;21039;-83
2022/07/20 01:55:57;;;;;;;12.55;9.50;;;21.80;99.90;;;;;;5087340;28;20294;-84
2022/07/20 01:58:24;;;;;;;10.43;9.32;;;21.90;99.90;;;;;;5086230;28;20683;-84
2022/07/20 02:00:51;;;;;;;10.90;9.30;;;21.80;99.90;;;;;;5086119;28;20211;-84
2022/07/20 02:03:20;;;;;;;12.52;9.63;;;21.70;99.90;;;;;;5084372;28;20349;-85
2022/07/20 02:05:47;;;;;;;11.60;9.05;;;21.90;99.90;;;;;;5089075;28;20969;-84
2022/07/20 02:08:14;;;;;;;11.85;9.43;;;21.50;99.90;;;;;;5087869;28;20609;-83
2022/07/20 02:10:41;;;;;;;10.80;9.73;;;21.60;99.90;;;;;;5097489;28;20239;-85
2022/07/20 02:13:10;;;;;;;15.07;9.90;;;21.60;99.90;;;;;;5092001;28;20204;-84
2022/07/20 02:18:23;;;;;;;10.00;8.85;;;21.50;99.90;;;;;;5086356;28;20245;-83
2022/07/20 02:20:50;;;;;;;9.55;8.57;;;21.60;99.90;;;;;;5086546;28;20576;-82
2022/07/20 02:23:17;;;;;;;10.35;8.80;;;21.50;99.90;;;;;;5083689;28;20199;-84
2022/07/20 02:25:44;;;;;;;11.32;10.32;;;21.70;99.90;;;;;;5098508;28;20290;-84
2022/07/20 02:28:11;;;;;;;12.02;10.55;;;21.50;99.90;;;;;;5109187;28;20184;-84
2022/07/20 02:30:41;;;;;;;12.13;10.57;;;21.70;99.90;;;;;;5099734;28;20218;-84
2022/07/20 02:33:10;;;;;;;12.77;10.93;;;21.50;99.90;;;;;;5080952;28;20203;-84
2022/07/20 02:35:37;;;;;;;15.43;10.48;;;21.40;99.90;;;;;;5083338;28;20210;-85
2022/07/20 02:38:04;;;;;;;11.82;9.90;;;21.30;99.90;;;;;;5082894;28;20263;-84
2022/07/20 02:40:31;;;;;;;12.70;10.68;;;21.20;99.90;;;;;;5086210;28;20215;-84
2022/07/20 02:42:59;;;;;;;10.93;9.55;;;21.40;99.90;;;;;;5086131;28;20622;-84
2022/07/20 02:45:27;;;;;;;11.05;9.85;;;21.20;99.90;;;;;;5084897;28;20585;-84
2022/07/20 02:48:02;;;;;;;13.68;10.02;;;21.20;99.90;;;;;;5083981;28;20562;-83
2022/07/20 02:50:36;;;;;;;11.73;9.40;;;21.20;99.90;;;;;;5084019;28;20234;-83
2022/07/20 02:53:08;;;;;;;10.48;9.38;;;21.10;99.90;;;;;;5087187;28;20211;-85
2022/07/20 02:55:35;;;;;;;11.73;9.73;;;21.10;99.90;;;;;;5083613;28;20210;-83
2022/07/20 02:58:03;;;;;;;10.95;9.77;;;21.20;99.90;;;;;;5085517;28;20210;-83
2022/07/20 03:00:31;;;;;;;11.15;10.10;;;21.00;99.90;;;;;;5085093;28;20207;-84
2022/07/20 03:02:59;;;;;;;11.38;10.23;;;21.00;99.90;;;;;;5078133;28;20228;-83
2022/07/20 03:05:31;;;;;;;10.75;9.70;;;21.00;99.90;;;;;;5077574;28;20215;-84
2022/07/20 03:07:59;;;;;;;12.65;9.60;;;20.90;99.90;;;;;;5073900;28;20212;-84
2022/07/20 03:10:28;;;;;;;16.00;11.02;;;21.00;99.90;;;;;;5078821;28;20225;-83
2022/07/20 03:13:00;;;;;;;11.27;10.18;;;20.90;99.90;;;;;;5075523;28;20211;-84
2022/07/20 03:15:27;;;;;;;10.98;9.88;;;20.90;99.90;;;;;;5079326;28;20234;-84
2022/07/20 03:17:57;;;;;;;11.63;10.18;;;20.60;99.90;;;;;;5080704;28;20298;-83
2022/07/20 03:20:29;;;;;;;12.80;10.80;;;20.80;99.90;;;;;;5074784;28;20239;-86
2022/07/20 03:22:56;;;;;;;14.75;10.45;;;20.80;99.90;;;;;;5075140;28;20212;-84
2022/07/20 03:25:24;;;;;;;14.82;10.20;;;20.80;99.90;;;;;;5077374;28;20200;-84
2022/07/20 03:27:53;;;;;;;13.93;9.60;;;20.70;99.90;;;;;;5079929;28;20197;-84
2022/07/20 03:30:21;;;;;;;10.68;9.48;;;20.70;99.90;;;;;;5076661;28;20715;-85
2022/07/20 03:32:48;;;;;;;14.00;9.90;;;20.80;99.90;;;;;;5081470;28;20227;-84
2022/07/20 03:35:16;;;;;;;13.68;9.88;;;20.60;99.90;;;;;;5076367;28;20211;-84
2022/07/20 03:37:44;;;;;;;9.60;8.60;;;20.90;99.90;;;;;;5084088;28;20207;-83
2022/07/20 03:40:12;;;;;;;10.68;9.57;;;20.50;99.90;;;;;;5086743;28;21045;-84
2022/07/20 03:42:39;;;;;;;12.45;9.77;;;20.50;99.90;;;;;;5082381;28;20222;-83
2022/07/20 03:45:06;;;;;;;10.63;8.77;;;20.50;99.90;;;;;;5078572;28;20204;-85
2022/07/20 03:47:36;;;;;;;11.88;7.82;;;20.40;99.90;;;;;;5075556;28;20204;-84
2022/07/20 03:50:04;;;;;;;8.38;7.18;;;20.50;99.90;;;;;;5079395;28;21354;-83
2022/07/20 03:52:34;;;;;;;9.18;7.30;;;20.50;99.90;;;;;;5080189;28;20355;-84
2022/07/20 03:55:01;;;;;;;10.70;7.13;;;20.80;99.90;;;;;;5084934;28;20204;-85
2022/07/20 03:57:28;;;;;;;9.93;7.00;;;20.50;99.90;;;;;;5081095;28;20208;-83
2022/07/20 03:59:58;;;;;;;11.98;7.90;;;20.60;99.90;;;;;;5083278;28;20249;-84
2022/07/20 04:02:27;;;;;;;9.38;7.72;;;20.60;99.90;;;;;;5040637;28;1164436;-85
2022/07/20 04:04:54;;;;;;;12.48;7.72;;;20.60;99.90;;;;;;5080123;28;20240;-84
2022/07/20 04:07:21;;;;;;;11.30;7.72;;;20.50;99.90;;;;;;5081435;28;20209;-84
2022/07/20 04:09:48;;;;;;;12.70;7.43;;;20.70;99.90;;;;;;5086088;28;20285;-84
2022/07/20 04:12:18;;;;;;;13.77;8.02;;;20.70;99.90;;;;;;5090035;28;20212;-83
2022/07/20 04:14:46;;;;;;;10.30;7.60;;;20.80;99.90;;;;;;5088352;28;20200;-84
2022/07/20 04:17:13;;;;;;;8.43;7.60;;;20.80;99.90;;;;;;5088981;28;20223;-84
2022/07/20 04:19:41;;;;;;;10.10;7.10;;;20.80;99.90;;;;;;5085498;28;20215;-83
2022/07/20 04:22:12;;;;;;;9.95;7.47;;;20.90;99.90;;;;;;5092928;28;20287;-83
2022/07/20 04:24:38;;;;;;;12.00;7.78;;;20.90;99.90;;;;;;5086645;28;20197;-84
2022/07/20 04:27:06;;;;;;;9.10;7.68;;;21.70;99.90;;;;;;5086757;28;20204;-85
2022/07/20 04:29:33;;;;;;;10.00;7.47;;;21.00;99.90;;;;;;5088578;28;20227;-85
2022/07/20 04:32:00;;;;;;;10.55;7.53;;;21.30;99.90;;;;;;5083681;28;20302;-85
2022/07/20 04:34:27;;;;;;;10.70;8.07;;;21.20;99.90;;;;;;5074415;28;21033;-84
2022/07/20 04:36:55;;;;;;;11.30;8.40;;;21.20;99.90;;;;;;5081756;28;20202;-86
2022/07/20 04:39:23;;;;;;;12.65;7.47;;;21.30;99.90;;;;;;5082875;28;20222;-85
2022/07/20 04:41:50;;;;;;;14.88;7.55;;;21.30;99.90;;;;;;5086403;28;20239;-84
2022/07/20 04:44:18;;;;;;;8.75;7.55;;;21.30;99.90;;;;;;5085332;28;20653;-83
2022/07/20 04:46:45;;;;;;;11.30;7.00;;;21.30;99.90;;;;;;5087694;28;20306;-84
2022/07/20 04:49:15;;;;;;;12.25;7.53;;;21.40;99.90;;;;;;5078735;28;20317;-85
2022/07/20 04:51:45;;;;;;;12.23;8.60;;;21.40;99.90;;;;;;5089631;28;20215;-84
2022/07/20 04:54:12;;;;;;;13.85;7.25;;;21.50;99.90;;;;;;5083781;28;20617;-84
2022/07/20 04:56:39;;;;;;;11.40;7.88;;;21.50;99.90;;;;;;5083642;28;20200;-84
2022/07/20 04:59:06;;;;;;;15.30;8.57;;;21.20;99.90;;;;;;5083240;28;20294;-83
2022/07/20 05:01:33;;;;;;;10.15;8.27;;;21.70;99.90;;;;;;5096956;28;20247;-84
2022/07/20 05:04:00;;;;;;;13.52;8.57;;;21.50;99.90;;;;;;5093829;28;20212;-84
2022/07/20 05:06:27;;;;;;;10.27;7.75;;;21.50;99.90;;;;;;5087840;28;20208;-84
2022/07/20 05:08:54;;;;;;;11.20;7.72;;;21.60;99.90;;;;;;5082742;28;20215;-84
2022/07/20 05:11:21;;;;;;;9.93;7.57;;;21.70;99.90;;;;;;5085325;28;20193;-89
2022/07/20 05:13:48;;;;;;;15.07;8.43;;;21.70;99.90;;;;;;5088179;28;20590;-88
2022/07/20 05:16:16;;;;;;;11.85;8.45;;;21.90;99.90;;;;;;5091792;28;20213;-84
2022/07/20 05:18:43;;;;;;;13.68;8.45;;;22.00;99.90;;;;;;5092383;28;20179;-86
2022/07/20 05:21:16;;;;;;;13.95;8.75;;;22.20;99.90;;;;;;5103539;28;20208;-87
2022/07/20 05:23:46;;;;;;;17.27;10.27;;;22.20;99.90;;;;;;5107556;28;20236;-88
2022/07/20 05:26:13;;;;;;;16.58;10.32;;;22.30;99.90;;;;;;5102527;28;20583;-87
2022/07/20 05:28:43;;;;;;;20.45;10.25;;;22.60;99.90;;;;;;5097192;28;20663;-87
2022/07/20 05:31:14;;;;;;;16.75;11.10;;;22.70;99.90;;;;;;5087243;28;20283;-86
2022/07/20 05:33:59;;;;;;;20.58;13.00;;;22.90;99.90;;;;;;5079146;28;20212;-87
2022/07/20 05:36:32;;;;;;;20.20;11.98;;;23.10;99.90;;;;;;5083720;28;20203;-87
2022/07/20 05:38:59;;;;;;;21.00;13.80;;;23.20;99.90;;;;;;5096205;28;20296;-87
2022/07/20 05:41:27;;;;;;;21.50;13.90;;;23.30;99.90;;;;;;5085235;28;20250;-87
2022/07/20 05:43:54;;;;;;;25.52;14.23;;;23.50;99.90;;;;;;5082302;28;20643;-89
2022/07/20 05:46:24;;;;;;;24.20;13.52;;;24.10;99.90;;;;;;5097012;28;20216;-85
2022/07/20 05:48:51;;;;;;;22.60;15.75;;;25.00;99.90;;;;;;5111995;28;20211;-87
2022/07/20 05:51:19;;;;;;;29.02;16.15;;;26.00;99.90;;;;;;5089244;28;20236;-86
2022/07/20 05:53:57;;;;;;;23.60;15.30;;;26.90;99.90;;;;;;5086170;28;20200;-86
2022/07/20 05:56:24;;;;;;;25.98;17.60;;;27.90;99.90;;;;;;5089483;28;20212;-90
2022/07/20 05:58:51;;;;;;;26.58;18.77;;;28.50;99.90;;;;;;5093216;28;20192;-88
2022/07/20 06:01:34;;;;;;;24.70;18.10;;;29.60;99.90;;;;;;5089610;28;20243;-88
2022/07/20 06:04:03;;;;;;;26.05;18.85;;;;;;;;;;5089809;28;20208;-88
2022/07/20 06:06:35;;;;;;;25.92;19.70;;;30.20;99.90;;;;;;5086515;28;20538;-88
2022/07/20 06:09:07;;;;;;;23.95;19.05;;;30.80;99.90;;;;;;5093018;28;20226;-87
2022/07/20 06:11:53;;;;;;;26.05;18.48;;;31.40;99.90;;;;;;5092375;28;20218;-88
2022/07/20 06:14:20;;;;;;;31.10;20.50;;;31.80;99.90;;;;;;5100063;28;20641;-90
2022/07/20 06:16:56;;;;;;;26.15;19.38;;;32.30;99.50;;;;;;5105634;28;20215;-88
2022/07/20 06:19:34;;;;;;;28.27;19.85;;;32.60;98.10;;;;;;5108786;28;20233;-89
2022/07/20 06:22:03;;;;;;;29.60;20.02;;;33.00;96.90;;;;;;5109822;28;20356;-88
2022/07/20 06:24:33;;;;;;;25.20;19.27;;;33.10;96.10;;;;;;5113665;28;20228;-89
2022/07/20 06:27:29;;;;;;;;;;;;;;;;;;;;;
2022/07/20 06:30:05;;;;;;;26.33;20.40;;;34.00;94.00;;;;;;5104663;28;20209;-90
2022/07/20 06:32:44;;;;;;;30.23;22.08;;;34.00;93.60;;;;;;5102857;28;20199;-91
2022/07/20 06:35:13;;;;;;;28.05;21.80;;;34.10;93.00;;;;;;5102267;28;20672;-88
2022/07/20 06:37:45;;;;;;;27.05;21.08;;;34.00;92.90;;;;;;5093528;28;20609;-91
2022/07/20 06:40:13;;;;;;;32.28;22.00;;;34.30;92.40;;;;;;5097314;28;20556;-89
2022/07/20 06:42:45;;;;;;;27.92;21.63;;;34.60;91.90;;;;;;5096020;28;20276;-89
2022/07/20 06:45:32;;;;;;;29.73;21.70;;;34.80;91.40;;;;;;5116122;28;20286;-89
2022/07/20 06:48:00;;;;;;;29.60;22.50;;;34.70;90.50;;;;;;5113481;28;20229;-89
2022/07/20 06:50:34;;;;;;;30.77;22.85;;;34.70;90.20;;;;;;5086377;28;20689;-87
2022/07/20 06:53:02;;;;;;;29.75;23.25;;;34.40;89.60;;;;;;5098210;28;20270;-87
2022/07/20 06:55:32;;;;;;;33.88;22.92;;;34.20;88.40;;;;;;5092209;28;20223;-86
2022/07/20 06:57:59;;;;;;;28.95;22.13;;;34.10;89.80;;;;;;5079951;28;20215;-84
2022/07/20 07:00:29;;;;;;;27.33;22.25;;;34.30;88.90;;;;;;5086464;28;20207;-85
2022/07/20 07:02:56;;;;;;;30.70;23.70;;;34.50;88.20;;;;;;5088218;28;20235;-85
2022/07/20 07:05:24;;;;;;;29.55;23.85;;;34.20;86.60;;;;;;5086679;28;20212;-85
2022/07/20 07:07:51;;;;;;;27.60;23.60;;;34.20;86.30;;;;;;5086929;28;20219;-83
2022/07/20 07:10:18;;;;;;;31.45;25.27;;;34.10;86.80;;;;;;5083767;28;20227;-85
2022/07/20 07:12:45;;;;;;;34.00;24.33;;;34.30;86.00;;;;;;5077820;28;20200;-85
2022/07/20 07:15:12;;;;;;;28.17;23.98;;;34.20;84.90;;;;;;5090496;28;20219;-83
2022/07/20 07:17:41;;;;;;;29.27;23.50;;;33.90;84.50;;;;;;5111273;28;20183;-86
2022/07/20 07:20:14;;;;;;;28.98;23.40;;;33.60;85.40;;;;;;5092190;28;20680;-84
2022/07/20 07:22:48;;;;;;;31.63;23.48;;;33.50;85.20;;;;;;5098555;28;20222;-87
2022/07/20 07:25:15;;;;;;;31.45;24.70;;;33.80;84.80;;;;;;5095128;28;20204;-88
2022/07/20 07:30:40;;;;;;;29.20;23.67;;;34.00;84.10;;;;;;5089945;28;20215;-85
2022/07/20 07:33:24;;;;;;;29.08;24.23;;;33.60;84.90;;;;;;5112985;28;20199;-92
2022/07/20 07:36:04;;;;;;;30.95;25.08;;;33.40;85.20;;;;;;5108171;28;20203;-91
2022/07/20 07:38:40;;;;;;;28.80;23.40;;;33.50;85.00;;;;;;5093673;28;20203;-87
2022/07/20 07:41:14;;;;;;;29.65;24.05;;;33.80;85.30;;;;;;5080003;28;20236;-90
2022/07/20 07:43:48;;;;;;;33.00;25.20;;;34.00;84.80;;;;;;5084760;28;20211;-85
2022/07/20 07:46:17;;;;;;;28.80;22.95;;;34.10;84.00;;;;;;5087355;28;20211;-86
2022/07/20 07:48:44;;;;;;;30.10;24.63;;;34.10;84.10;;;;;;5082641;28;20959;-85
2022/07/20 07:51:30;;;;;;;32.05;24.50;;;34.20;83.10;;;;;;5078854;28;20223;-86
2022/07/20 07:54:01;;;;;;;31.30;24.55;;;34.60;81.90;;;;;;5081534;28;21000;-87
2022/07/20 07:56:34;;;;;;;29.50;24.88;;;35.00;80.70;;;;;;5086315;28;20210;-89
2022/07/20 07:59:01;;;;;;;29.58;24.00;;;34.90;80.50;;;;;;5085619;28;20207;-86
2022/07/20 08:01:50;;;;;;;28.38;24.35;;;34.90;81.40;;;;;;5087418;28;20217;-86
2022/07/20 08:04:17;;;;;;;32.53;25.88;;;35.20;81.00;;;;;;5095849;28;20180;-89
2022/07/20 08:06:50;;;;;;;31.13;25.48;;;35.30;79.80;;;;;;5113285;28;20251;-87
2022/07/20 08:09:17;;;;;;;32.10;25.85;;;35.30;79.20;;;;;;5111785;28;20235;-84
2022/07/20 08:11:53;;;;;;;30.83;26.33;;;35.00;79.10;;;;;;5098488;28;20216;-86
2022/07/20 08:14:23;;;;;;;32.05;25.08;;;34.80;79.20;;;;;;5081900;28;20294;-87
2022/07/20 08:16:56;;;;;;;30.33;25.63;;;34.60;79.70;;;;;;5088480;28;20257;-86
2022/07/20 08:19:25;;;;;;;30.08;26.63;;;34.80;81.10;;;;;;5087544;28;20200;-86
2022/07/20 08:21:56;;;;;;;38.30;26.90;;;34.40;81.30;;;;;;5087065;28;20239;-87
2022/07/20 08:24:23;;;;;;;31.92;26.88;;;34.30;82.00;;;;;;5079334;28;20276;-86
2022/07/20 08:26:53;;;;;;;30.92;26.80;;;34.20;82.00;;;;;;5085763;28;20205;-87
2022/07/20 08:29:22;;;;;;;30.70;25.67;;;34.20;81.70;;;;;;5086734;28;20302;-87
2022/07/20 08:31:55;;;;;;;31.38;24.67;;;34.20;82.10;;;;;;5082922;28;20634;-87
2022/07/20 08:34:39;;;;;;;30.48;23.23;;;34.20;81.90;;;;;;5080699;28;20204;-87
2022/07/20 08:37:06;;;;;;;28.88;21.92;;;34.50;80.70;;;;;;5086275;28;20223;-87
2022/07/20 08:39:33;;;;;;;24.92;20.33;;;34.40;79.90;;;;;;5077950;28;20645;-86
2022/07/20 08:42:08;;;;;;;22.52;17.75;;;34.40;78.40;;;;;;5079345;28;20226;-86
2022/07/20 08:44:36;;;;;;;23.63;18.13;;;34.20;77.20;;;;;;5086287;28;20195;-86
2022/07/20 08:47:03;;;;;;;21.77;17.30;;;34.40;75.90;;;;;;5073323;28;20220;-86
2022/07/20 08:49:30;;;;;;;19.10;17.02;;;34.40;75.30;;;;;;5093808;28;20200;-86
2022/07/20 08:52:01;;;;;;;23.25;18.27;;;34.70;74.20;;;;;;5099192;28;20231;-87
2022/07/20 08:54:31;;;;;;;18.65;16.67;;;34.80;75.30;;;;;;5094781;28;20216;-87
2022/07/20 08:57:15;;;;;;;23.02;17.40;;;34.80;74.60;;;;;;5103291;28;20652;-86
2022/07/20 08:59:48;;;;;;;22.00;18.00;;;34.50;74.40;;;;;;5096574;28;20214;-86
2022/07/20 09:02:16;;;;;;;26.67;17.27;;;34.20;75.50;;;;;;5084692;28;20652;-86
2022/07/20 09:04:56;;;;;;;26.70;18.65;;;34.10;76.20;;;;;;5084289;28;20216;-87
2022/07/20 09:07:48;;;;;;;23.65;18.50;;;34.10;78.20;;;;;;5085542;28;20207;-86
2022/07/20 09:10:30;;;;;;;26.50;17.70;;;33.90;77.70;;;;;;5091391;28;20234;-86
2022/07/20 09:13:05;;;;;;;24.58;18.20;;;33.70;78.30;;;;;;5088269;28;20211;-85
2022/07/20 09:15:52;;;;;;;21.98;16.60;;;33.40;78.80;;;;;;5085775;28;20216;-88
2022/07/20 09:18:26;;;;;;;20.55;16.20;;;33.40;79.20;;;;;;5085433;28;20265;-87
2022/07/20 09:21:00;;;;;;;20.45;17.23;;;33.60;79.50;;;;;;5088383;28;20211;-87
2022/07/20 09:23:35;;;;;;;20.23;15.63;;;33.90;79.60;;;;;;5084967;28;20228;-87
2022/07/20 09:26:12;;;;;;;22.10;15.98;;;34.30;78.00;;;;;;5088522;28;20564;-87
2022/07/20 09:28:51;;;;;;;19.23;15.27;;;34.60;76.70;;;;;;5085453;28;20203;-86
2022/07/20 09:31:34;;;;;;;16.70;14.90;;;34.80;74.30;;;;;;5089641;28;20280;-87
2022/07/20 09:34:14;;;;;;;17.88;14.63;;;34.70;73.00;;;;;;5090445;28;20321;-85
2022/07/20 09:36:46;;;;;;;17.88;13.93;;;34.60;73.30;;;;;;5077822;28;20729;-88
2022/07/20 09:39:19;;;;;;;16.42;13.10;;;34.60;73.60;;;;;;5083000;28;20219;-88
2022/07/20 09:41:56;;;;;;;20.60;14.00;;;34.80;72.50;;;;;;5080167;28;20621;-86
2022/07/20 09:44:30;;;;;;;16.73;12.90;;;34.90;73.70;;;;;;5090409;28;20203;-88
2022/07/20 09:47:10;;;;;;;16.52;13.63;;;35.00;71.80;;;;;;5086792;28;20265;-86
2022/07/20 09:49:40;;;;;;;16.58;12.63;;;35.00;71.80;;;;;;5095323;28;20211;-87
2022/07/20 09:52:13;;;;;;;17.42;11.77;;;35.00;71.20;;;;;;5084907;28;20247;-89
2022/07/20 09:55:00;;;;;;;12.15;9.82;;;35.00;70.70;;;;;;5087815;28;20747;-87
2022/07/20 09:57:27;;;;;;;11.23;10.00;;;34.90;70.30;;;;;;5087018;28;20209;-87
2022/07/20 09:59:58;;;;;;;12.10;9.27;;;34.80;69.80;;;;;;5088217;28;20732;-87
2022/07/20 10:02:28;;;;;;;14.65;9.15;;;34.80;69.60;;;;;;5090490;28;20239;-87
2022/07/20 10:05:00;;;;;;;17.90;9.30;;;34.60;69.00;;;;;;5085784;28;20208;-85
2022/07/20 10:07:31;;;;;;;11.82;9.15;;;34.50;68.50;;;;;;5092942;28;20208;-86
2022/07/20 10:10:02;;;;;;;11.85;8.75;;;34.50;68.30;;;;;;5102889;28;20200;-86
2022/07/20 10:12:33;;;;;;;12.23;8.90;;;34.00;69.10;;;;;;5092963;28;20262;-86
2022/07/20 10:15:07;;;;;;;11.90;8.73;;;33.60;69.60;;;;;;5092675;28;20849;-87
2022/07/20 10:17:39;;;;;;;12.95;8.95;;;33.70;70.00;;;;;;5100805;28;20204;-88
2022/07/20 10:20:30;;;;;;;9.85;7.28;;;33.60;70.60;;;;;;5083414;28;20247;-88
2022/07/20 10:23:16;;;;;;;10.05;7.65;;;33.20;68.40;;;;;;5091691;28;20215;-88
2022/07/20 10:25:55;;;;;;;10.10;7.75;;;33.20;69.30;;;;;;5098280;28;20192;-88
2022/07/20 10:28:35;;;;;;;9.95;8.18;;;33.20;69.70;;;;;;5089431;28;20261;-88
2022/07/20 10:31:07;;;;;;;9.43;7.53;;;33.30;69.40;;;;;;5094124;28;20227;-88
2022/07/20 10:33:38;;;;;;;9.38;7.50;;;33.30;70.00;;;;;;5103524;28;20291;-88
2022/07/20 10:39:44;;;;;;;10.10;7.25;;;33.40;69.70;;;;;;5093804;28;20211;-89
2022/07/20 10:42:28;;;;;;;10.98;7.22;;;33.40;70.10;;;;;;5093392;28;20207;-86
2022/07/20 10:45:19;;;;;;;10.77;7.75;;;33.50;69.40;;;;;;5088099;28;20264;-89
2022/07/20 10:48:11;;;;;;;11.25;7.85;;;33.70;70.20;;;;;;5092565;28;20565;-86
2022/07/20 10:50:55;;;;;;;9.43;8.18;;;33.80;70.00;;;;;;5085182;28;20230;-86
2022/07/20 10:53:24;;;;;;;9.55;8.23;;;33.80;70.80;;;;;;5088841;28;20282;-87
2022/07/20 10:55:55;;;;;;;10.13;8.27;;;33.90;71.20;;;;;;5091466;28;20549;-86
2022/07/20 10:58:35;;;;;;;10.05;8.80;;;33.90;70.70;;;;;;5090230;28;20243;-88
2022/07/20 11:01:07;;;;;;;13.55;9.00;;;33.80;70.80;;;;;;5099024;28;20224;-89
2022/07/20 11:03:41;;;;;;;10.60;8.38;;;33.90;70.70;;;;;;5106083;28;20231;-87
2022/07/20 11:06:18;;;;;;;12.68;8.25;;;33.90;71.70;;;;;;5091437;28;20223;-86
2022/07/20 11:09:01;;;;;;;13.68;8.68;;;33.90;71.10;;;;;;5091635;28;20211;-86
2022/07/20 11:11:39;;;;;;;16.55;9.10;;;33.60;71.80;;;;;;5081311;28;20311;-86
2022/07/20 11:14:09;;;;;;;13.60;9.73;;;33.50;72.20;;;;;;5077465;28;20692;-87
2022/07/20 11:16:39;;;;;;;12.05;9.48;;;33.50;72.80;;;;;;5084592;28;20315;-85
2022/07/20 11:19:17;;;;;;;14.82;9.15;;;33.60;72.60;;;;;;5086897;28;20249;-86
2022/07/20 11:22:06;;;;;;;12.32;9.68;;;33.70;72.80;;;;;;5084227;28;20195;-87
2022/07/20 11:24:33;;;;;;;12.20;9.55;;;33.60;72.80;;;;;;5081593;28;20210;-86
2022/07/20 11:27:14;;;;;;;13.55;9.18;;;33.70;73.80;;;;;;5084126;28;20676;-85
2022/07/20 11:29:46;;;;;;;10.65;8.70;;;33.80;74.00;;;;;;5082429;28;20199;-84
2022/07/20 11:32:14;;;;;;;14.82;9.55;;;33.90;73.10;;;;;;5073903;28;20556;-86
2022/07/20 11:34:47;;;;;;;14.43;9.23;;;33.90;73.10;;;;;;5077411;28;20228;-86
2022/07/20 11:37:21;;;;;;;12.10;8.43;;;34.10;74.10;;;;;;5082790;28;20230;-85
2022/07/20 11:39:51;;;;;;;12.18;8.85;;;33.90;72.80;;;;;;5086608;28;20610;-86
2022/07/20 11:42:21;;;;;;;13.32;8.75;;;33.70;72.00;;;;;;5080840;28;20227;-86
2022/07/20 11:45:05;;;;;;;9.48;7.97;;;33.40;72.50;;;;;;5084275;28;20281;-87
2022/07/20 11:47:33;;;;;;;10.60;7.75;;;33.10;72.10;;;;;;5083760;28;20295;-85
2022/07/20 11:50:09;;;;;;;10.85;7.72;;;33.00;72.70;;;;;;5085046;28;20199;-84
2022/07/20 11:52:45;;;;;;;10.82;7.90;;;33.00;73.00;;;;;;5084425;28;20227;-85
2022/07/20 11:55:15;;;;;;;10.00;8.00;;;33.10;73.10;;;;;;5081962;28;20717;-84
2022/07/20 11:57:54;;;;;;;10.30;7.57;;;33.30;72.80;;;;;;5074912;28;20288;-84
2022/07/20 12:00:27;;;;;;;11.02;8.05;;;33.50;73.30;;;;;;5081009;28;20223;-87
2022/07/20 12:02:54;;;;;;;8.50;7.25;;;33.70;73.40;;;;;;5081586;28;20321;-85
2022/07/20 12:05:26;;;;;;;11.13;7.65;;;33.80;72.80;;;;;;5081317;28;20208;-86
2022/07/20 12:08:11;;;;;;;9.68;7.45;;;33.80;72.20;;;;;;5077811;28;20218;-86
2022/07/20 12:10:45;;;;;;;9.05;7.30;;;34.00;71.70;;;;;;5088723;28;20223;-87
2022/07/20 12:13:16;;;;;;;8.93;6.57;;;34.20;71.60;;;;;;5083310;28;20203;-88
2022/07/20 12:16:02;;;;;;;9.00;6.55;;;34.20;70.50;;;;;;5081989;28;20602;-87
2022/07/20 12:19:03;;;;;;;;;;;;;;;;;;;;;
2022/07/20 12:21:47;;;;;;;7.15;5.57;;;34.10;70.70;;;;;;5079473;28;20199;-87
2022/07/20 12:24:15;;;;;;;7.55;5.82;;;33.80;70.40;;;;;;5083415;28;20223;-87
2022/07/20 12:26:45;;;;;;;9.15;6.00;;;33.80;71.60;;;;;;5087590;28;20200;-87
2022/07/20 12:29:26;;;;;;;6.10;5.60;;;33.80;70.70;;;;;;5087333;28;20200;-88
2022/07/20 12:32:07;;;;;;;8.23;5.35;;;33.90;71.10;;;;;;5091141;28;20223;-85
2022/07/20 12:34:52;;;;;;;7.00;4.93;;;33.90;69.60;;;;;;5091725;28;20200;-85
2022/07/20 12:37:21;;;;;;;6.90;5.13;;;34.10;71.90;;;;;;5090548;28;20205;-84
2022/07/20 12:39:53;;;;;;;7.57;5.05;;;34.20;69.40;;;;;;5082556;28;20214;-87
2022/07/20 12:42:28;;;;;;;7.00;4.53;;;34.00;68.70;;;;;;5085189;28;20200;-85
2022/07/20 12:45:20;;;;;;;5.88;4.70;;;34.00;68.50;;;;;;5073897;28;20226;-85
2022/07/20 12:47:47;;;;;;;6.45;4.40;;;33.70;68.70;;;;;;5087784;28;20665;-85
2022/07/20 12:50:35;;;;;;;6.97;5.03;;;33.60;69.10;;;;;;5083985;28;20253;-84
2022/07/20 12:53:11;;;;;;;7.80;5.53;;;33.60;69.20;;;;;;5087910;28;20300;-85
2022/07/20 12:55:39;;;;;;;6.70;4.97;;;33.70;69.00;;;;;;5092371;28;20211;-85
2022/07/20 12:58:07;;;;;;;7.32;4.97;;;33.90;69.90;;;;;;5097572;28;20671;-85
2022/07/20 13:00:41;;;;;;;6.97;5.15;;;34.00;70.60;;;;;;5097624;28;20212;-86
2022/07/20 13:03:09;;;;;;;8.50;5.60;;;34.10;70.30;;;;;;5098438;28;20247;-85
2022/07/20 13:05:40;;;;;;;9.00;5.22;;;34.20;69.60;;;;;;5099971;28;20224;-85
2022/07/20 13:08:08;;;;;;;6.80;4.60;;;34.20;68.60;;;;;;5100910;28;20224;-85
2022/07/20 13:10:40;;;;;;;5.97;4.80;;;34.30;68.10;;;;;;5101930;28;20209;-85
2022/07/20 13:13:27;;;;;;;;;;;;;;;;;;;;;